createdAt,value
2018-11-23T00:00:25.992Z,99.99
2018-11-23T00:01:26.001Z,99.99
2018-11-23T00:02:25.993Z,99.99
2018-11-23T00:03:25.996Z,99.99
2018-11-23T00:04:25.977Z,99.99
2018-11-23T00:05:25.980Z,99.99
2018-11-23T00:06:25.983Z,99.99
2018-11-23T00:07:25.982Z,99.99
2018-11-23T00:08:25.967Z,99.99
2018-11-23T00:09:25.962Z,99.99
2018-11-23T00:10:25.958Z,99.99
2018-11-23T00:11:25.962Z,99.99
2018-11-23T00:12:25.965Z,99.99
2018-11-23T00:13:25.989Z,99.99
2018-11-23T00:14:25.949Z,99.99
2018-11-23T00:15:25.954Z,99.99
2018-11-23T00:16:25.967Z,99.99
2018-11-23T00:17:25.957Z,99.99
2018-11-23T00:18:25.950Z,99.99
2018-11-23T00:19:25.963Z,99.99
2018-11-23T00:20:25.935Z,99.99
2018-11-23T00:21:25.938Z,99.99
2018-11-23T00:22:25.935Z,99.99
2018-11-23T00:23:25.943Z,99.99
2018-11-23T00:24:25.919Z,99.99
2018-11-23T00:25:25.930Z,99.99
2018-11-23T00:26:25.923Z,99.99
2018-11-23T00:27:25.917Z,99.99
2018-11-23T00:28:25.921Z,99.99
2018-11-23T00:29:25.905Z,99.99
2018-11-23T00:30:25.924Z,99.99
2018-11-23T00:31:25.930Z,99.99
2018-11-23T00:32:25.914Z,99.99
2018-11-23T00:33:25.899Z,99.99
2018-11-23T00:34:25.906Z,99.99
2018-11-23T00:35:25.906Z,99.99
2018-11-23T00:36:25.882Z,99.99
2018-11-23T00:37:25.882Z,99.99
2018-11-23T00:38:25.875Z,99.99
2018-11-23T00:39:25.891Z,99.99
2018-11-23T00:40:25.876Z,99.81
2018-11-23T00:41:25.872Z,99.99
2018-11-23T00:42:25.866Z,99.71
2018-11-23T00:43:25.869Z,99.90
2018-11-23T00:44:25.868Z,99.99
2018-11-23T00:45:25.858Z,99.81
2018-11-23T00:46:25.851Z,99.71
2018-11-23T00:47:26.882Z,99.15
2018-11-23T00:48:25.887Z,98.96
2018-11-23T00:49:25.849Z,99.15
2018-11-23T00:50:25.859Z,98.96
2018-11-23T00:51:25.868Z,98.11
2018-11-23T00:52:25.866Z,98.30
2018-11-23T00:53:25.844Z,98.49
2018-11-23T00:54:25.829Z,99.05
2018-11-23T00:55:25.833Z,98.68
2018-11-23T00:56:25.855Z,99.15
2018-11-23T00:57:25.837Z,98.77
2018-11-23T00:58:25.849Z,99.43
2018-11-23T00:59:25.821Z,99.52
2018-11-23T01:00:25.819Z,99.05
2018-11-23T01:01:25.830Z,99.15
2018-11-23T01:02:25.817Z,98.86
2018-11-23T01:03:25.817Z,98.49
2018-11-23T01:04:25.816Z,98.96
2018-11-23T01:05:25.807Z,98.86
2018-11-23T01:06:25.811Z,98.86
2018-11-23T01:07:25.804Z,98.39
2018-11-23T01:08:25.808Z,98.68
2018-11-23T01:09:25.789Z,98.96
2018-11-23T01:10:25.788Z,99.39
2018-11-23T01:11:25.802Z,99.86
2018-11-23T01:12:25.775Z,99.86
2018-11-23T01:13:25.787Z,99.99
2018-11-23T01:14:25.785Z,99.99
2018-11-23T01:15:25.767Z,99.96
2018-11-23T01:16:25.771Z,99.99
2018-11-23T01:17:25.770Z,99.99
2018-11-23T01:18:25.767Z,99.99
2018-11-23T01:19:25.771Z,99.99
2018-11-23T01:20:25.779Z,99.99
2018-11-23T01:21:25.760Z,99.99
2018-11-23T01:22:25.767Z,99.99
2018-11-23T01:23:25.760Z,99.99
2018-11-23T01:24:25.750Z,99.99
2018-11-23T01:25:25.745Z,99.99
2018-11-23T01:26:25.746Z,99.99
2018-11-23T01:27:25.771Z,99.99
2018-11-23T01:28:25.735Z,99.99
2018-11-23T01:29:25.749Z,99.99
2018-11-23T01:30:25.730Z,99.99
2018-11-23T01:31:25.738Z,99.99
2018-11-23T01:32:25.734Z,99.99
2018-11-23T01:33:25.733Z,99.99
2018-11-23T01:34:25.739Z,99.99
2018-11-23T01:35:25.749Z,99.99
2018-11-23T01:36:25.715Z,99.99
2018-11-23T01:37:25.707Z,99.99
2018-11-23T01:38:25.714Z,99.99
2018-11-23T01:39:25.727Z,99.99
2018-11-23T01:40:25.702Z,99.99
2018-11-23T01:41:25.712Z,99.99
2018-11-23T01:42:25.704Z,99.99
2018-11-23T01:43:25.711Z,99.99
2018-11-23T01:44:25.707Z,99.99
2018-11-23T01:45:25.699Z,99.99
2018-11-23T01:46:25.695Z,99.99
2018-11-23T01:47:25.686Z,99.99
2018-11-23T01:48:25.681Z,99.99
2018-11-23T01:49:25.681Z,99.99
2018-11-23T01:50:25.675Z,99.99
2018-11-23T01:51:25.676Z,99.99
2018-11-23T01:52:25.674Z,99.99
2018-11-23T01:53:25.684Z,99.99
2018-11-23T01:54:25.684Z,99.99
2018-11-23T01:55:25.697Z,99.99
2018-11-23T01:56:25.669Z,99.99
2018-11-23T01:57:25.659Z,99.99
2018-11-23T01:58:25.656Z,99.99
2018-11-23T01:59:25.678Z,99.99
2018-11-23T02:00:25.659Z,99.99
2018-11-23T02:01:25.647Z,99.99
2018-11-23T02:02:25.646Z,99.99
2018-11-23T02:03:25.661Z,99.99
2018-11-23T02:04:25.644Z,99.99
2018-11-23T02:05:25.661Z,99.99
2018-11-23T02:06:25.635Z,99.99
2018-11-23T02:07:25.639Z,99.99
2018-11-23T02:08:25.641Z,99.99
2018-11-23T02:09:25.630Z,99.99
2018-11-23T02:10:25.634Z,99.99
2018-11-23T02:11:25.635Z,99.99
2018-11-23T02:12:25.636Z,99.99
2018-11-23T02:13:25.632Z,99.99
2018-11-23T02:14:25.632Z,99.99
2018-11-23T02:15:25.622Z,99.99
2018-11-23T02:16:25.633Z,99.99
2018-11-23T02:17:25.623Z,99.99
2018-11-23T02:18:25.625Z,99.99
2018-11-23T02:19:25.603Z,99.99
2018-11-23T02:20:25.606Z,99.99
2018-11-23T02:21:25.597Z,99.99
2018-11-23T02:22:25.593Z,99.99
2018-11-23T02:23:25.591Z,99.99
2018-11-23T02:24:25.613Z,99.99
2018-11-23T02:25:25.589Z,99.99
2018-11-23T02:26:25.585Z,99.99
2018-11-23T02:27:25.612Z,99.99
2018-11-23T02:28:25.594Z,99.99
2018-11-23T02:29:25.600Z,99.99
2018-11-23T02:30:25.565Z,99.99
2018-11-23T02:31:25.572Z,99.99
2018-11-23T02:32:25.571Z,99.99
2018-11-23T02:33:25.561Z,99.99
2018-11-23T02:34:25.575Z,99.99
2018-11-23T02:35:25.558Z,99.99
2018-11-23T02:36:25.561Z,99.99
2018-11-23T02:37:25.579Z,99.99
2018-11-23T02:38:25.552Z,99.99
2018-11-23T02:39:25.551Z,99.99
2018-11-23T02:40:25.551Z,99.99
2018-11-23T02:41:25.551Z,99.99
2018-11-23T02:42:25.542Z,99.99
2018-11-23T02:43:25.532Z,99.99
2018-11-23T02:44:25.533Z,99.99
2018-11-23T02:45:25.526Z,99.99
2018-11-23T02:46:25.538Z,99.99
2018-11-23T02:47:25.535Z,99.99
2018-11-23T02:48:25.528Z,99.99
2018-11-23T02:49:25.534Z,99.99
2018-11-23T02:50:25.521Z,99.99
2018-11-23T02:51:25.513Z,99.99
2018-11-23T02:52:25.507Z,99.99
2018-11-23T02:53:25.511Z,99.99
2018-11-23T02:54:25.523Z,99.99
2018-11-23T02:55:25.505Z,99.99
2018-11-23T02:56:27.226Z,99.99
2018-11-23T02:57:25.494Z,99.99
2018-11-23T02:58:25.491Z,99.99
2018-11-23T02:59:25.505Z,99.99
2018-11-23T03:00:25.498Z,99.99
2018-11-23T03:01:25.482Z,99.99
2018-11-23T03:02:25.484Z,99.99
2018-11-23T03:03:25.479Z,99.99
2018-11-23T03:04:25.497Z,99.99
2018-11-23T03:05:25.476Z,99.99
2018-11-23T03:06:25.486Z,99.99
2018-11-23T03:07:25.465Z,99.99
2018-11-23T03:08:25.475Z,99.90
2018-11-23T03:09:25.458Z,99.99
2018-11-23T03:10:25.457Z,99.71
2018-11-23T03:11:25.460Z,99.99
2018-11-23T03:12:25.451Z,99.90
2018-11-23T03:13:25.457Z,99.81
2018-11-23T03:14:25.446Z,99.62
2018-11-23T03:15:25.451Z,99.81
2018-11-23T03:16:25.456Z,99.15
2018-11-23T03:17:25.436Z,99.05
2018-11-23T03:18:25.439Z,99.24
2018-11-23T03:19:25.466Z,99.05
2018-11-23T03:20:25.421Z,98.86
2018-11-23T03:21:25.424Z,98.01
2018-11-23T03:22:25.428Z,97.06
2018-11-23T03:23:25.421Z,96.78
2018-11-23T03:24:25.426Z,97.06
2018-11-23T03:25:25.413Z,97.06
2018-11-23T03:26:25.418Z,96.40
2018-11-23T03:27:25.412Z,96.59
2018-11-23T03:28:25.399Z,96.59
2018-11-23T03:29:25.409Z,96.59
2018-11-23T03:30:25.393Z,96.59
2018-11-23T03:31:25.417Z,96.69
2018-11-23T03:32:28.224Z,96.78
2018-11-23T03:33:25.387Z,96.50
2018-11-23T03:34:25.392Z,96.50
2018-11-23T03:35:25.375Z,96.59
2018-11-23T03:36:25.401Z,96.97
2018-11-23T03:37:25.385Z,96.59
2018-11-23T03:38:25.378Z,96.12
2018-11-23T03:39:25.372Z,96.59
2018-11-23T03:40:25.393Z,96.12
2018-11-23T03:41:25.350Z,96.50
2018-11-23T03:42:25.355Z,96.97
2018-11-23T03:43:25.417Z,96.78
2018-11-23T03:44:25.359Z,96.59
2018-11-23T03:45:25.354Z,96.12
2018-11-23T03:46:25.351Z,95.36
2018-11-23T03:47:25.340Z,95.45
2018-11-23T03:48:25.333Z,95.83
2018-11-23T03:49:25.327Z,95.26
2018-11-23T03:50:25.329Z,95.26
2018-11-23T03:51:25.329Z,94.98
2018-11-23T03:52:25.350Z,95.45
2018-11-23T03:53:25.346Z,95.83
2018-11-23T03:54:25.330Z,95.64
2018-11-23T03:55:25.335Z,96.21
2018-11-23T03:56:25.316Z,95.93
2018-11-23T03:57:25.321Z,95.45
2018-11-23T03:58:25.300Z,95.45
2018-11-23T03:59:25.309Z,95.74
2018-11-23T04:00:25.313Z,95.74
2018-11-23T04:01:25.300Z,95.55
2018-11-23T04:02:25.293Z,95.74
2018-11-23T04:03:25.291Z,95.74
2018-11-23T04:04:25.300Z,95.36
2018-11-23T04:05:25.302Z,94.84
2018-11-23T04:06:25.293Z,94.08
2018-11-23T04:07:25.329Z,94.37
2018-11-23T04:08:25.303Z,93.04
2018-11-23T04:09:25.275Z,92.66
2018-11-23T04:10:25.267Z,92.66
2018-11-23T04:11:25.274Z,92.76
2018-11-23T04:12:25.283Z,92.66
2018-11-23T04:13:25.261Z,93.51
2018-11-23T04:14:25.258Z,94.37
2018-11-23T04:15:25.271Z,95.50
2018-11-23T04:16:25.263Z,94.93
2018-11-23T04:17:25.237Z,94.56
2018-11-23T04:18:25.245Z,94.56
2018-11-23T04:19:25.243Z,94.08
2018-11-23T04:20:25.236Z,94.27
2018-11-23T04:21:25.245Z,94.27
2018-11-23T04:22:25.238Z,93.89
2018-11-23T04:23:25.225Z,93.99
2018-11-23T04:24:25.222Z,93.99
2018-11-23T04:25:25.226Z,93.61
2018-11-23T04:26:25.230Z,93.13
2018-11-23T04:27:25.226Z,92.76
2018-11-23T04:28:25.213Z,92.66
2018-11-23T04:29:25.200Z,93.04
2018-11-23T04:30:25.198Z,93.80
2018-11-23T04:31:25.222Z,93.80
2018-11-23T04:32:25.204Z,93.80
2018-11-23T04:33:25.204Z,93.80
2018-11-23T04:34:25.194Z,93.61
2018-11-23T04:35:25.230Z,93.51
2018-11-23T04:36:25.198Z,94.27
2018-11-23T04:37:25.199Z,94.65
2018-11-23T04:38:25.199Z,95.59
2018-11-23T04:39:25.180Z,95.88
2018-11-23T04:40:25.187Z,95.69
2018-11-23T04:41:25.172Z,95.12
2018-11-23T04:42:25.160Z,95.12
2018-11-23T04:43:25.160Z,94.65
2018-11-23T04:44:25.154Z,94.27
2018-11-23T04:45:25.174Z,94.56
2018-11-23T04:46:25.187Z,94.27
2018-11-23T04:47:25.165Z,94.37
2018-11-23T04:48:25.154Z,94.27
2018-11-23T04:49:25.170Z,94.65
2018-11-23T04:50:25.150Z,94.46
2018-11-23T04:51:25.153Z,94.56
2018-11-23T04:52:25.130Z,94.27
2018-11-23T04:53:25.133Z,94.65
2018-11-23T04:54:25.140Z,94.37
2018-11-23T04:55:25.124Z,93.80
2018-11-23T04:56:25.124Z,94.46
2018-11-23T04:57:25.118Z,93.51
2018-11-23T04:58:25.110Z,92.94
2018-11-23T04:59:25.122Z,93.51
2018-11-23T05:00:25.154Z,92.19
2018-11-23T05:01:25.116Z,89.82
2018-11-23T05:02:25.113Z,88.68
2018-11-23T05:03:25.098Z,88.97
2018-11-23T05:04:25.088Z,89.54
2018-11-23T05:05:25.105Z,89.44
2018-11-23T05:06:25.096Z,89.63
2018-11-23T05:07:25.090Z,88.97
2018-11-23T05:08:25.101Z,88.40
2018-11-23T05:09:25.091Z,86.79
2018-11-23T05:10:25.105Z,87.74
2018-11-23T05:11:25.076Z,88.31
2018-11-23T05:12:25.065Z,88.49
2018-11-23T05:13:25.068Z,87.84
2018-11-23T05:14:25.078Z,88.49
2018-11-23T05:15:25.071Z,88.87
2018-11-23T05:16:25.051Z,89.82
2018-11-23T05:17:25.060Z,90.96
2018-11-23T05:18:25.061Z,90.86
2018-11-23T05:19:25.041Z,90.48
2018-11-23T05:20:25.050Z,89.35
2018-11-23T05:21:25.049Z,88.31
2018-11-23T05:22:25.044Z,87.84
2018-11-23T05:23:25.027Z,87.84
2018-11-23T05:24:25.034Z,88.31
2018-11-23T05:25:25.048Z,88.02
2018-11-23T05:26:25.043Z,88.49
2018-11-23T05:27:25.027Z,88.02
2018-11-23T05:28:25.035Z,87.55
2018-11-23T05:29:25.017Z,87.74
2018-11-23T05:30:25.033Z,87.74
2018-11-23T05:31:25.026Z,87.21
2018-11-23T05:32:25.006Z,87.17
2018-11-23T05:33:24.995Z,87.17
2018-11-23T05:34:25.020Z,87.69
2018-11-23T05:35:24.997Z,88.73
2018-11-23T05:36:24.995Z,88.73
2018-11-23T05:37:24.993Z,89.01
2018-11-23T05:38:24.983Z,88.92
2018-11-23T05:39:24.984Z,89.01
2018-11-23T05:40:25.012Z,88.73
2018-11-23T05:41:24.988Z,89.11
2018-11-23T05:42:24.969Z,88.78
2018-11-23T05:43:24.957Z,89.16
2018-11-23T05:44:24.972Z,88.87
2018-11-23T05:45:24.963Z,88.78
2018-11-23T05:46:24.950Z,88.68
2018-11-23T05:47:24.959Z,89.06
2018-11-23T05:48:26.923Z,88.78
2018-11-23T05:49:24.952Z,88.73
2018-11-23T05:50:24.948Z,88.78
2018-11-23T05:51:24.932Z,89.11
2018-11-23T05:52:24.934Z,89.01
2018-11-23T05:53:24.935Z,89.30
2018-11-23T05:54:24.929Z,89.11
2018-11-23T05:55:24.943Z,89.54
2018-11-23T05:56:24.943Z,89.06
2018-11-23T05:57:24.924Z,89.16
2018-11-23T05:58:24.925Z,89.06
2018-11-23T05:59:24.922Z,89.16
2018-11-23T06:00:24.920Z,88.59
2018-11-23T06:01:24.924Z,88.40
2018-11-23T06:02:24.898Z,88.02
2018-11-23T06:03:24.895Z,87.74
2018-11-23T06:04:24.897Z,87.74
2018-11-23T06:05:24.891Z,87.36
2018-11-23T06:06:25.892Z,87.93
2018-11-23T06:07:24.894Z,88.87
2018-11-23T06:08:24.896Z,88.97
2018-11-23T06:09:24.898Z,88.31
2018-11-23T06:10:24.901Z,88.21
2018-11-23T06:11:24.901Z,88.49
2018-11-23T06:12:24.866Z,88.02
2018-11-23T06:13:24.867Z,88.40
2018-11-23T06:14:24.864Z,88.68
2018-11-23T06:15:24.873Z,88.21
2018-11-23T06:16:24.859Z,87.65
2018-11-23T06:17:24.851Z,87.74
2018-11-23T06:18:24.859Z,88.02
2018-11-23T06:19:24.864Z,88.21
2018-11-23T06:20:24.864Z,88.59
2018-11-23T06:21:24.842Z,88.40
2018-11-23T06:22:24.837Z,88.21
2018-11-23T06:23:24.852Z,88.31
2018-11-23T06:24:27.582Z,88.78
2018-11-23T06:25:24.831Z,88.97
2018-11-23T06:26:24.824Z,89.06
2018-11-23T06:27:24.827Z,89.25
2018-11-23T06:28:24.832Z,89.35
2018-11-23T06:29:24.822Z,90.06
2018-11-23T06:30:24.832Z,90.53
2018-11-23T06:31:24.812Z,90.67
2018-11-23T06:32:24.820Z,90.48
2018-11-23T06:33:24.803Z,90.39
2018-11-23T06:34:24.807Z,90.30
2018-11-23T06:35:24.794Z,90.39
2018-11-23T06:36:24.799Z,90.20
2018-11-23T06:37:24.812Z,90.30
2018-11-23T06:38:24.783Z,90.11
2018-11-23T06:39:24.787Z,90.01
2018-11-23T06:40:24.773Z,90.77
2018-11-23T06:41:24.776Z,90.30
2018-11-23T06:42:24.785Z,90.39
2018-11-23T06:43:24.770Z,90.39
2018-11-23T06:44:24.752Z,90.11
2018-11-23T06:45:24.768Z,90.20
2018-11-23T06:46:24.763Z,90.48
2018-11-23T06:47:24.744Z,90.20
2018-11-23T06:48:24.753Z,90.11
2018-11-23T06:49:24.790Z,90.30
2018-11-23T06:50:24.762Z,90.20
2018-11-23T06:51:24.737Z,90.39
2018-11-23T06:52:24.746Z,89.92
2018-11-23T06:53:24.729Z,90.30
2018-11-23T06:54:24.733Z,90.39
2018-11-23T06:55:27.237Z,90.11
2018-11-23T06:56:24.745Z,91.05
2018-11-23T06:57:24.759Z,90.48
2018-11-23T06:58:24.718Z,89.82
2018-11-23T06:59:24.707Z,89.35
2018-11-23T07:00:24.713Z,88.40
2018-11-23T07:01:24.704Z,88.78
2018-11-23T07:02:24.712Z,89.16
2018-11-23T07:03:24.716Z,88.78
2018-11-23T07:04:24.693Z,88.59
2018-11-23T07:05:24.702Z,89.16
2018-11-23T07:06:24.734Z,88.78
2018-11-23T07:07:24.704Z,88.59
2018-11-23T07:08:24.701Z,88.21
2018-11-23T07:09:24.687Z,88.31
2018-11-23T07:10:24.670Z,88.49
2018-11-23T07:11:24.686Z,88.31
2018-11-23T07:12:24.670Z,87.93
2018-11-23T07:13:24.659Z,87.74
2018-11-23T07:14:24.659Z,88.40
2018-11-23T07:15:24.659Z,88.87
2018-11-23T07:16:24.658Z,88.49
2018-11-23T07:17:24.684Z,88.87
2018-11-23T07:18:24.651Z,88.40
2018-11-23T07:19:24.649Z,88.31
2018-11-23T07:20:24.640Z,88.21
2018-11-23T07:21:24.639Z,88.97
2018-11-23T07:22:24.655Z,88.68
2018-11-23T07:23:24.649Z,89.44
2018-11-23T07:24:24.648Z,89.35
2018-11-23T07:25:24.627Z,89.06
2018-11-23T07:26:24.616Z,90.20
2018-11-23T07:27:24.622Z,91.91
2018-11-23T07:28:24.621Z,92.10
2018-11-23T07:29:24.624Z,92.10
2018-11-23T07:30:24.601Z,92.66
2018-11-23T07:31:24.611Z,93.13
2018-11-23T07:32:24.610Z,92.94
2018-11-23T07:33:24.615Z,93.61
2018-11-23T07:34:24.607Z,94.37
2018-11-23T07:35:24.595Z,94.08
2018-11-23T07:36:24.596Z,94.93
2018-11-23T07:37:24.577Z,94.27
2018-11-23T07:38:24.584Z,94.27
2018-11-23T07:39:24.578Z,93.70
2018-11-23T07:40:24.576Z,93.89
2018-11-23T07:41:24.630Z,93.80
2018-11-23T07:42:24.568Z,92.94
2018-11-23T07:43:26.257Z,93.04
2018-11-23T07:44:24.578Z,93.61
2018-11-23T07:45:24.546Z,93.56
2018-11-23T07:46:24.554Z,94.60
2018-11-23T07:47:24.560Z,95.55
2018-11-23T07:48:24.561Z,96.59
2018-11-23T07:49:24.540Z,97.25
2018-11-23T07:50:24.537Z,98.11
2018-11-23T07:51:24.543Z,99.15
2018-11-23T07:52:24.536Z,99.24
2018-11-23T07:53:24.548Z,99.99
2018-11-23T07:54:24.547Z,99.99
2018-11-23T07:55:24.522Z,99.99
2018-11-23T07:56:24.516Z,99.99
2018-11-23T07:57:24.517Z,99.99
2018-11-23T07:58:24.511Z,99.99
2018-11-23T07:59:24.501Z,99.99
2018-11-23T08:00:24.520Z,99.99
2018-11-23T08:01:24.538Z,99.99
2018-11-23T08:02:24.512Z,99.99
2018-11-23T08:03:24.519Z,99.99
2018-11-23T08:04:24.501Z,99.99
2018-11-23T08:05:24.496Z,99.99
2018-11-23T08:06:24.482Z,99.99
2018-11-23T08:07:24.497Z,99.99
2018-11-23T08:08:24.477Z,99.99
2018-11-23T08:09:24.475Z,99.99
2018-11-23T08:10:24.485Z,99.99
2018-11-23T08:11:24.472Z,99.99
2018-11-23T08:12:24.499Z,99.99
2018-11-23T08:13:24.497Z,99.99
2018-11-23T08:14:24.472Z,99.99
2018-11-23T08:15:24.582Z,99.99
2018-11-23T08:16:24.497Z,99.99
2018-11-23T08:17:24.452Z,99.99
2018-11-23T08:18:24.459Z,99.99
2018-11-23T08:19:24.450Z,99.99
2018-11-23T08:20:24.461Z,99.99
2018-11-23T08:21:24.455Z,99.99
2018-11-23T08:22:24.432Z,99.99
2018-11-23T08:23:24.474Z,99.99
2018-11-23T08:24:24.441Z,99.99
2018-11-23T08:25:24.456Z,99.99
2018-11-23T08:26:24.430Z,99.99
2018-11-23T08:27:24.453Z,99.99
2018-11-23T08:28:24.455Z,99.99
2018-11-23T08:29:24.415Z,99.99
2018-11-23T08:30:24.437Z,99.99
2018-11-23T08:31:24.411Z,99.99
2018-11-23T08:32:24.423Z,99.99
2018-11-23T08:33:24.435Z,99.99
2018-11-23T08:34:24.397Z,99.99
2018-11-23T08:35:24.412Z,99.99
2018-11-23T08:36:24.395Z,99.99
2018-11-23T08:37:24.413Z,99.99
2018-11-23T08:38:24.420Z,99.99
2018-11-23T08:39:24.414Z,99.99
2018-11-23T08:40:24.422Z,99.99
2018-11-23T08:41:24.405Z,99.99
2018-11-23T08:42:24.388Z,99.99
2018-11-23T08:43:24.397Z,99.99
2018-11-23T08:44:24.385Z,99.99
2018-11-23T08:45:24.391Z,99.99
2018-11-23T08:46:24.401Z,99.99
2018-11-23T08:47:24.396Z,99.99
2018-11-23T08:48:24.372Z,99.99
2018-11-23T08:49:24.364Z,99.99
2018-11-23T08:50:24.382Z,99.99
2018-11-23T08:51:24.392Z,99.99
2018-11-23T08:52:24.394Z,99.99
2018-11-23T08:53:27.961Z,99.99
2018-11-23T08:54:24.378Z,99.99
2018-11-23T08:55:24.381Z,99.99
2018-11-23T08:56:24.400Z,99.99
2018-11-23T08:57:24.389Z,99.99
2018-11-23T08:58:24.366Z,99.99
2018-11-23T08:59:24.417Z,99.99
2018-11-23T09:00:24.383Z,99.99
2018-11-23T09:01:24.385Z,99.99
2018-11-23T09:02:24.378Z,99.99
2018-11-23T09:03:24.376Z,99.99
2018-11-23T09:04:24.391Z,99.99
2018-11-23T09:05:24.446Z,99.99
2018-11-23T09:06:24.469Z,99.99
2018-11-23T09:07:24.498Z,99.99
2018-11-23T09:08:24.373Z,99.99
2018-11-23T09:09:24.443Z,99.99
2018-11-23T09:10:24.383Z,99.99
2018-11-23T09:11:24.389Z,99.99
2018-11-23T09:12:24.394Z,99.99
2018-11-23T09:13:24.407Z,99.99
2018-11-23T09:14:24.384Z,99.99
2018-11-23T09:15:24.421Z,99.99
2018-11-23T09:16:24.380Z,99.99
2018-11-23T09:17:24.396Z,99.99
2018-11-23T09:18:24.395Z,99.99
2018-11-23T09:19:24.392Z,99.99
2018-11-23T09:20:24.393Z,99.99
2018-11-23T09:21:24.388Z,99.99
2018-11-23T09:22:24.436Z,99.99
2018-11-23T09:23:24.412Z,99.99
2018-11-23T09:24:24.442Z,99.99
2018-11-23T09:25:24.443Z,99.99
2018-11-23T09:26:24.393Z,99.99
2018-11-23T09:27:24.423Z,99.99
2018-11-23T09:28:24.409Z,99.99
2018-11-23T09:29:24.418Z,99.99
2018-11-23T09:30:24.403Z,99.99
2018-11-23T09:31:24.431Z,99.99
2018-11-23T09:32:24.415Z,99.99
2018-11-23T09:33:24.409Z,99.99
2018-11-23T09:34:24.440Z,99.99
2018-11-23T09:35:24.406Z,99.99
2018-11-23T09:36:24.424Z,99.99
2018-11-23T09:37:24.443Z,99.99
2018-11-23T09:38:24.479Z,99.99
2018-11-23T09:39:24.433Z,99.99
2018-11-23T09:40:24.424Z,99.99
2018-11-23T09:41:24.420Z,99.99
2018-11-23T09:42:24.446Z,99.99
2018-11-23T09:43:24.421Z,99.99
2018-11-23T09:44:24.463Z,99.99
2018-11-23T09:45:24.408Z,99.99
2018-11-23T09:46:24.420Z,99.99
2018-11-23T09:47:24.422Z,99.99
2018-11-23T09:48:24.410Z,99.99
2018-11-23T09:49:24.424Z,99.99
2018-11-23T09:50:24.448Z,99.99
2018-11-23T09:51:24.437Z,99.99
2018-11-23T09:52:24.419Z,99.99
2018-11-23T09:53:24.419Z,99.99
2018-11-23T09:54:24.436Z,99.99
2018-11-23T09:55:24.447Z,99.99
2018-11-23T09:56:24.435Z,99.99
2018-11-23T09:57:25.294Z,99.99
2018-11-23T09:58:24.421Z,99.99
2018-11-23T09:59:24.423Z,99.99
2018-11-23T10:00:24.420Z,99.99
2018-11-23T10:01:24.421Z,99.99
2018-11-23T10:02:24.444Z,99.99
2018-11-23T10:03:24.442Z,99.99
2018-11-23T10:04:24.420Z,99.99
2018-11-23T10:05:24.434Z,99.99
2018-11-23T10:06:24.441Z,99.99
2018-11-23T10:07:24.435Z,99.99
2018-11-23T10:08:24.416Z,99.99
2018-11-23T10:09:24.420Z,99.99
2018-11-23T10:10:24.440Z,99.99
2018-11-23T10:11:24.425Z,99.99
2018-11-23T10:12:24.447Z,99.99
2018-11-23T10:13:24.425Z,99.99
2018-11-23T10:14:24.548Z,99.99
2018-11-23T10:15:24.463Z,99.99
2018-11-23T10:16:24.536Z,99.99
2018-11-23T10:17:24.442Z,99.99
2018-11-23T10:18:24.540Z,99.99
2018-11-23T10:19:24.469Z,99.99
2018-11-23T10:20:24.502Z,99.99
2018-11-23T10:21:24.484Z,99.99
2018-11-23T10:22:24.428Z,99.99
2018-11-23T10:23:24.433Z,99.99
2018-11-23T10:24:24.449Z,99.99
2018-11-23T10:25:24.442Z,99.99
2018-11-23T10:26:24.422Z,99.99
2018-11-23T10:27:24.462Z,99.99
2018-11-23T10:28:24.448Z,99.99
2018-11-23T10:29:24.449Z,99.99
2018-11-23T10:30:24.511Z,99.99
2018-11-23T10:31:24.453Z,99.99
2018-11-23T10:32:24.477Z,99.99
2018-11-23T10:33:28.173Z,99.99
2018-11-23T10:34:24.496Z,99.99
2018-11-23T10:35:24.434Z,99.99
2018-11-23T10:36:24.448Z,99.99
2018-11-23T10:37:24.450Z,99.99
2018-11-23T10:38:24.437Z,99.99
2018-11-23T10:39:24.461Z,99.99
2018-11-23T10:40:24.461Z,99.99
2018-11-23T10:41:24.493Z,99.99
2018-11-23T10:42:24.481Z,99.99
2018-11-23T10:43:24.469Z,99.99
2018-11-23T10:44:24.499Z,99.99
2018-11-23T10:45:24.554Z,99.99
2018-11-23T10:46:24.450Z,99.99
2018-11-23T10:47:24.450Z,99.99
2018-11-23T10:48:24.468Z,99.99
2018-11-23T10:49:24.475Z,99.99
2018-11-23T10:50:24.480Z,99.99
2018-11-23T10:51:24.465Z,99.99
2018-11-23T10:52:24.521Z,99.99
2018-11-23T10:53:24.485Z,99.99
2018-11-23T10:54:24.481Z,99.99
2018-11-23T10:55:24.489Z,99.99
2018-11-23T10:56:24.513Z,99.99
2018-11-23T10:57:24.481Z,99.99
2018-11-23T10:58:24.487Z,99.99
2018-11-23T10:59:24.476Z,99.61
2018-11-23T11:00:24.476Z,97.37
2018-11-23T11:01:24.553Z,97.03
2018-11-23T11:02:24.498Z,96.84
2018-11-23T11:03:24.885Z,97.70
2018-11-23T11:04:24.497Z,98.65
2018-11-23T11:05:24.510Z,99.99
2018-11-23T11:06:24.524Z,99.99
2018-11-23T11:07:24.504Z,99.99
2018-11-23T11:08:24.577Z,99.99
2018-11-23T11:09:24.516Z,99.99
2018-11-23T11:10:24.507Z,99.99
2018-11-23T11:11:24.532Z,99.99
2018-11-23T11:12:24.513Z,99.99
2018-11-23T11:13:24.524Z,99.99
2018-11-23T11:14:24.534Z,99.99
2018-11-23T11:15:24.503Z,99.99
2018-11-23T11:16:24.546Z,99.99
2018-11-23T11:17:24.600Z,99.99
2018-11-23T11:18:26.354Z,99.99
2018-11-23T11:19:24.509Z,99.99
2018-11-23T11:20:24.522Z,99.99
2018-11-23T11:21:24.537Z,99.99
2018-11-23T11:22:24.519Z,99.99
2018-11-23T11:23:24.527Z,99.99
2018-11-23T11:24:24.759Z,99.99
2018-11-23T11:25:24.536Z,99.99
2018-11-23T11:26:24.566Z,99.99
2018-11-23T11:27:24.534Z,99.99
2018-11-23T11:28:24.540Z,99.99
2018-11-23T11:29:24.544Z,99.99
2018-11-23T11:30:24.550Z,99.99
2018-11-23T11:31:24.545Z,99.99
2018-11-23T11:32:24.558Z,99.99
2018-11-23T11:33:24.549Z,99.99
2018-11-23T11:34:24.568Z,99.99
2018-11-23T11:35:24.550Z,99.99
2018-11-23T11:36:24.577Z,99.99
2018-11-23T11:37:24.581Z,99.99
2018-11-23T11:38:24.544Z,99.99
2018-11-23T11:39:24.543Z,99.99
2018-11-23T11:40:24.573Z,99.99
2018-11-23T11:41:24.543Z,99.99
2018-11-23T11:42:24.561Z,99.99
2018-11-23T11:43:24.563Z,99.99
2018-11-23T11:44:24.689Z,99.99
2018-11-23T11:45:24.554Z,99.99
2018-11-23T11:46:24.573Z,99.99
2018-11-23T11:47:24.561Z,99.99
2018-11-23T11:48:24.556Z,99.99
2018-11-23T11:49:24.554Z,99.99
2018-11-23T11:50:24.571Z,99.99
2018-11-23T11:51:24.581Z,99.99
2018-11-23T11:52:24.591Z,99.99
2018-11-23T11:53:26.376Z,99.99
2018-11-23T11:54:24.580Z,99.99
2018-11-23T11:55:24.575Z,99.99
2018-11-23T11:56:24.568Z,99.99
2018-11-23T11:57:24.588Z,99.99
2018-11-23T11:58:24.580Z,99.99
2018-11-23T11:59:24.605Z,99.99
2018-11-23T12:00:24.575Z,99.99
2018-11-23T12:01:24.572Z,99.99
2018-11-23T12:02:24.624Z,99.99
2018-11-23T12:03:24.634Z,99.99
2018-11-23T12:04:24.579Z,99.99
2018-11-23T12:05:24.584Z,99.99
2018-11-23T12:06:24.588Z,99.99
2018-11-23T12:07:24.608Z,99.99
2018-11-23T12:08:24.607Z,99.99
2018-11-23T12:09:24.604Z,99.99
2018-11-23T12:10:24.600Z,99.99
2018-11-23T12:11:24.614Z,99.99
2018-11-23T12:12:24.593Z,99.99
2018-11-23T12:13:24.604Z,99.99
2018-11-23T12:14:24.579Z,99.99
2018-11-23T12:15:24.589Z,99.99
2018-11-23T12:16:24.594Z,99.99
2018-11-23T12:17:24.623Z,99.99
2018-11-23T12:18:27.348Z,99.99
2018-11-23T12:19:24.616Z,99.99
2018-11-23T12:20:24.589Z,99.99
2018-11-23T12:21:24.585Z,99.99
2018-11-23T12:22:24.598Z,99.99
2018-11-23T12:23:24.588Z,99.99
2018-11-23T12:24:24.613Z,99.99
2018-11-23T12:25:24.588Z,99.99
2018-11-23T12:26:24.589Z,99.99
2018-11-23T12:27:24.601Z,99.99
2018-11-23T12:28:24.594Z,99.99
2018-11-23T12:29:24.611Z,99.99
2018-11-23T12:30:24.598Z,99.99
2018-11-23T12:31:24.594Z,99.99
2018-11-23T12:32:24.591Z,99.99
2018-11-23T12:33:24.617Z,99.99
2018-11-23T12:34:24.582Z,99.99
2018-11-23T12:35:24.591Z,99.99
2018-11-23T12:36:24.615Z,99.99
2018-11-23T12:37:25.037Z,99.99
2018-11-23T12:38:24.592Z,99.99
2018-11-23T12:39:24.596Z,99.99
2018-11-23T12:40:24.600Z,99.99
2018-11-23T12:41:24.583Z,99.99
2018-11-23T12:42:24.595Z,99.99
2018-11-23T12:43:24.592Z,99.99
2018-11-23T12:44:24.590Z,99.99
2018-11-23T12:45:24.597Z,99.99
2018-11-23T12:46:24.617Z,99.99
2018-11-23T12:47:24.593Z,99.99
2018-11-23T12:48:24.686Z,99.99
2018-11-23T12:49:24.766Z,99.99
2018-11-23T12:50:24.718Z,99.99
2018-11-23T12:51:24.586Z,99.99
2018-11-23T12:52:24.623Z,99.99